VE3KSR Weather Reports


Display with metric or nautical units.
time (UTC)temp
F
wind
direction
speed
MPH
gust
MPH
rain 1hr
in
rain 24hr
in
rain mn
in
humidity
%
barometer
mb
20170220174210 36 158 10.0 14.0 0.03 0.00 0.00 78 1028.6
20170220174113 36 158 10.0 14.0 0.03 0.00 0.00 78 1028.6
20170220173658 36 139 8.0 11.0 0.03 0.00 0.00 80 1028.7
20170220173613 36 139 8.0 11.0 0.03 0.00 0.00 80 1028.7
20170220173114 35 145 11.0 13.0 0.03 0.00 0.00 77 1028.8
20170220172717 35 158 9.0 12.0 0.03 0.00 0.00 82 1028.8
20170220172615 35 158 9.0 12.0 0.03 0.00 0.00 82 1028.8
20170220172113 35 160 9.0 10.0 0.03 0.00 0.00 82 1029.1
20170220171613 35 159 10.0 12.0 0.03 0.00 0.00 81 1029.3
20170220171204 35 138 10.0 14.0 0.03 0.00 0.00 82 1029.2
20170220171113 35 138 10.0 14.0 0.03 0.00 0.00 82 1029.2
20170220170701 34 159 10.0 14.0 0.03 0.00 0.00 83 1029.3
20170220170613 34 159 10.0 14.0 0.03 0.00 0.00 83 1029.3
20170220170249 34 160 12.0 15.0 0.03 0.00 0.00 84 1029.3
20170220170113 34 160 12.0 15.0 0.03 0.00 0.00 84 1029.3
20170220165656 34 117 10.0 12.0 0.03 0.00 0.00 85 1029.5
20170220165615 34 117 10.0 12.0 0.03 0.00 0.00 85 1029.5
20170220165210 33 153 10.0 13.0 0.03 0.00 0.00 84 1029.5
20170220165113 33 153 10.0 13.0 0.03 0.00 0.00 84 1029.5
20170220164654 34 162 10.0 14.0 0.03 0.00 0.00 84 1029.6
20170220164614 34 162 10.0 14.0 0.03 0.00 0.00 84 1029.6
20170220164149 33 160 9.0 12.0 0.03 0.00 0.00 86 1029.7
20170220164113 33 160 9.0 12.0 0.03 0.00 0.00 86 1029.7
20170220163656 34 167 9.0 12.0 0.03 0.00 0.00 86 1029.6
20170220163613 34 167 9.0 12.0 0.03 0.00 0.00 86 1029.6
20170220163209 33 128 9.0 12.0 0.03 0.00 0.00 86 1029.3
20170220163113 33 128 9.0 12.0 0.03 0.00 0.00 86 1029.3
20170220162655 33 127 9.0 11.0 0.03 0.00 0.00 86 1029.3
20170220162613 33 127 9.0 11.0 0.03 0.00 0.00 86 1029.3
20170220162155 32 122 10.0 12.0 0.03 0.00 0.00 85 1029.2
20170220162113 32 122 10.0 12.0 0.03 0.00 0.00 85 1029.2
20170220161613 33 127 10.0 13.0 0.03 0.00 0.00 87 1029.4
20170220161117 32 118 9.0 11.0 0.03 0.00 0.00 89 1029.5
20170220160659 32 120 10.0 11.0 0.03 0.00 0.00 87 1029.6
20170220160613 32 120 10.0 11.0 0.03 0.00 0.00 87 1029.6
20170220160209 32 131 10.0 10.0 0.03 0.00 0.00 89 1029.4
20170220160113 32 131 10.0 10.0 0.03 0.00 0.00 89 1029.4
20170220155731 31 122 10.0 12.0 0.03 0.00 0.00 88 1029.4
20170220155613 31 122 10.0 12.0 0.03 0.00 0.00 88 1029.4
20170220155226 32 125 9.0 12.0 0.03 0.00 0.00 89 1029.3
20170220155113 32 125 9.0 12.0 0.03 0.00 0.00 89 1029.3
20170220154613 31 132 9.0 11.0 0.03 0.00 0.00 89 1029.4
20170220154147 32 131 10.0 12.0 0.03 0.00 0.00 89 1029.5
20170220154114 32 131 10.0 12.0 0.03 0.00 0.00 89 1029.5
20170220153721 32 120 8.0 10.0 0.03 0.00 0.00 90 1029.5
20170220153614 32 120 8.0 10.0 0.03 0.00 0.00 90 1029.5
20170220153152 31 114 9.0 10.0 0.03 0.00 0.00 90 1029.6
20170220153119 31 114 9.0 10.0 0.03 0.00 0.00 90 1029.6
20170220152614 31 101 8.0 10.0 0.03 0.00 0.00 90 1029.6
20170220152202 31 129 9.0 10.0 0.03 0.00 0.00 90 1029.8
20170220152113 31 129 9.0 10.0 0.03 0.00 0.00 90 1029.8
20170220151614 31 138 7.0 9.0 0.03 0.00 0.00 90 1030.0
20170220151156 31 138 7.0 8.0 0.03 0.00 0.00 90 1029.8
20170220151115 31 138 7.0 8.0 0.03 0.00 0.00 90 1029.8
20170220150742 30 128 5.0 8.0 0.03 0.00 0.00 90 1029.9
20170220150653 30 128 5.0 8.0 0.03 0.00 0.00 90 1029.9
20170220150615 30 128 5.0 8.0 0.03 0.00 0.00 90 1029.9
20170220150113 30 104 5.0 7.0 0.03 0.00 0.00 89 1030.0
20170220145715 30 138 8.0 9.0 0.03 0.00 0.00 90 1029.8
20170220145617 30 138 8.0 9.0 0.03 0.00 0.00 90 1029.8
20170220145114 30 125 9.0 10.0 0.03 0.00 0.00 90 1029.7
20170220144732 30 125 9.0 10.0 0.03 0.00 0.00 90 1029.6
20170220144613 30 125 9.0 10.0 0.03 0.00 0.00 90 1029.6
20170220144150 30 135 7.0 9.0 0.03 0.00 0.00 90 1029.5
20170220144113 30 135 7.0 9.0 0.03 0.00 0.00 90 1029.5
20170220143729 29 141 8.0 10.0 0.03 0.00 0.00 91 1029.6
20170220143613 29 141 8.0 10.0 0.03 0.00 0.00 91 1029.6
20170220143209 29 138 8.0 10.0 0.03 0.00 0.00 90 1029.5
20170220143114 29 138 8.0 10.0 0.03 0.00 0.00 90 1029.5
20170220142747 29 125 9.0 10.0 0.03 0.00 0.00 90 1029.7
20170220142613 29 125 9.0 10.0 0.03 0.00 0.00 90 1029.7
20170220142114 30 125 10.0 12.0 0.03 0.00 0.00 90 1029.7
20170220141616 30 98 9.0 11.0 0.03 0.00 0.00 90 1029.7
20170220141213 29 100 9.0 11.0 0.03 0.00 0.00 91 1029.6
20170220141113 29 100 9.0 11.0 0.03 0.00 0.00 91 1029.6
20170220140739 29 111 11.0 12.0 0.03 0.00 0.00 91 1029.4
20170220140614 29 111 11.0 12.0 0.03 0.00 0.00 91 1029.4
20170220140250 29 111 12.0 13.0 0.03 0.00 0.00 91 1029.3
20170220140114 29 111 12.0 13.0 0.03 0.00 0.00 91 1029.3
20170220135654 29 114 13.0 14.0 0.03 0.00 0.00 92 1029.2
20170220135613 29 114 13.0 14.0 0.03 0.00 0.00 92 1029.2
20170220135223 28 115 13.0 15.0 0.03 0.00 0.00 92 1029.1
20170220135113 28 115 13.0 15.0 0.03 0.00 0.00 92 1029.1
20170220134741 29 110 13.0 15.0 0.03 0.00 0.00 91 1029.2
20170220134613 29 110 13.0 15.0 0.03 0.00 0.00 91 1029.2
20170220134115 28 101 13.0 16.0 0.03 0.00 0.00 92 1029.2
20170220133651 28 115 13.0 15.0 0.03 0.00 0.00 92 1029.2
20170220133613 28 115 13.0 15.0 0.03 0.00 0.00 92 1029.2
20170220133115 28 107 13.0 15.0 0.03 0.00 0.00 93 1029.2
20170220132613 28 111 13.0 16.0 0.03 0.00 0.00 93 1029.2
20170220132118 28 111 13.0 15.0 0.03 0.00 0.00 93 1029.3
20170220131716 28 103 13.0 14.0 0.03 0.00 0.00 93 1029.5
20170220131613 28 103 13.0 14.0 0.03 0.00 0.00 93 1029.5
20170220131153 28 108 14.0 15.0 0.03 0.00 0.00 92 1029.3
20170220131113 28 108 14.0 15.0 0.03 0.00 0.00 92 1029.3
20170220130732 28 101 13.0 15.0 0.03 0.00 0.00 93 1029.3
20170220130614 28 101 13.0 15.0 0.03 0.00 0.00 93 1029.3
20170220130203 28 113 12.0 15.0 0.03 0.00 0.00 93 1029.1
20170220130113 28 113 12.0 15.0 0.03 0.00 0.00 93 1029.1
20170220125717 28 108 13.0 15.0 0.03 0.00 0.00 93 1029.0
20170220125616 28 108 13.0 15.0 0.03 0.00 0.00 93 1029.0
20170220125228 28 96 12.0 14.0 0.03 0.00 0.00 93 1029.1
20170220125113 28 96 12.0 14.0 0.03 0.00 0.00 93 1029.1
20170220124710 28 110 12.0 15.0 0.03 0.00 0.00 93 1029.1
20170220124613 28 110 12.0 15.0 0.03 0.00 0.00 93 1029.1
20170220124239 28 105 13.0 15.0 0.03 0.00 0.00 93 1028.9
20170220124117 28 105 13.0 15.0 0.03 0.00 0.00 93 1028.9
20170220123651 28 104 13.0 14.0 0.03 0.00 0.00 93 1028.9
20170220123613 28 104 13.0 14.0 0.03 0.00 0.00 93 1028.9
20170220123237 28 110 13.0 15.0 0.03 0.00 0.00 93 1028.8
20170220123114 28 110 13.0 15.0 0.03 0.00 0.00 93 1028.8
20170220122613 28 105 13.0 15.0 0.03 0.00 0.00 93 1028.9
20170220122248 28 113 13.0 15.0 0.03 0.00 0.00 93 1028.8
20170220122114 28 113 13.0 15.0 0.03 0.00 0.00 93 1028.8
20170220121615 28 113 14.0 16.0 0.03 0.00 0.00 93 1028.5
20170220121210 28 111 14.0 17.0 0.03 0.00 0.00 93 1028.5
20170220121113 28 111 14.0 17.0 0.03 0.00 0.00 93 1028.5
20170220120708 28 117 14.0 16.0 0.03 0.00 0.00 93 1028.2
20170220120615 28 117 14.0 16.0 0.03 0.00 0.00 93 1028.2
20170220120114 28 103 14.0 16.0 0.03 0.00 0.00 93 1028.0
20170220115614 28 111 14.0 16.0 0.03 0.00 0.00 93 1027.9
20170220115221 28 113 14.0 16.0 0.03 0.00 0.00 93 1027.7
20170220115114 28 113 14.0 16.0 0.03 0.00 0.00 93 1027.7
20170220114614 28 101 16.0 17.0 0.03 0.00 0.00 93 1027.7
20170220114234 29 108 14.0 16.0 0.03 0.00 0.00 93 1027.6
20170220114114 29 108 14.0 16.0 0.03 0.00 0.00 93 1027.6
20170220113615 28 100 13.0 15.0 0.03 0.00 0.00 93 1027.9
20170220113302 28 97 13.0 15.0 0.03 0.00 0.00 93 1027.9
20170220113114 28 97 13.0 15.0 0.03 0.00 0.00 93 1027.9
20170220112741 29 98 12.0 14.0 0.03 0.00 0.00 93 1027.7
20170220112615 29 98 12.0 14.0 0.03 0.00 0.00 93 1027.7
20170220112114 29 91 13.0 15.0 0.03 0.00 0.00 93 1027.6
20170220111721 29 97 13.0 15.0 0.03 0.00 0.00 93 1027.5
20170220111614 29 97 13.0 15.0 0.03 0.00 0.00 93 1027.5
20170220111235 29 101 13.0 15.0 0.03 0.00 0.00 93 1027.4
20170220111115 29 101 13.0 15.0 0.03 0.00 0.00 93 1027.4
20170220110741 29 107 13.0 15.0 0.03 0.00 0.00 93 1027.4
20170220110614 29 107 13.0 15.0 0.03 0.00 0.00 93 1027.4
20170220110249 29 104 13.0 15.0 0.03 0.00 0.00 94 1027.3
20170220110114 29 104 13.0 15.0 0.03 0.00 0.00 94 1027.3
20170220105734 29 108 13.0 15.0 0.03 0.00 0.00 94 1027.2
20170220105616 29 108 13.0 15.0 0.03 0.00 0.00 94 1027.2
20170220105224 29 114 13.0 14.0 0.03 0.00 0.00 94 1027.2
20170220105114 29 114 13.0 14.0 0.03 0.00 0.00 94 1027.2
20170220104739 29 105 12.0 14.0 0.03 0.00 0.00 94 1027.3
20170220104614 29 105 12.0 14.0 0.03 0.00 0.00 94 1027.3
20170220104301 29 103 12.0 14.0 0.03 0.00 0.00 94 1027.4
20170220104114 29 103 12.0 14.0 0.03 0.00 0.00 94 1027.4
20170220103856 29 101 13.0 15.0 0.03 0.00 0.00 94 1027.4
20170220103704 29 101 13.0 15.0 0.03 0.00 0.00 94 1027.4
20170220103616 29 101 13.0 15.0 0.03 0.00 0.00 94 1027.4
20170220103205 29 101 13.0 15.0 0.03 0.00 0.00 94 1027.4
20170220103114 29 101 13.0 15.0 0.03 0.00 0.00 94 1027.4
20170220102615 29 101 13.0 15.0 0.03 0.00 0.00 94 1027.4
20170220102302 29 98 12.0 14.0 0.03 0.00 0.00 94 1027.4
20170220102115 29 98 12.0 14.0 0.03 0.00 0.00 94 1027.4
20170220101727 29 93 12.0 14.0 0.03 0.00 0.00 94 1027.7
20170220101616 29 93 12.0 14.0 0.03 0.00 0.00 94 1027.7
20170220101257 29 96 12.0 14.0 0.03 0.00 0.00 94 1027.4
20170220101114 29 96 12.0 14.0 0.03 0.00 0.00 94 1027.4
20170220100752 29 69 12.0 13.0 0.03 0.00 0.00 94 1027.5
20170220100614 29 69 12.0 13.0 0.03 0.00 0.00 94 1027.5
20170220100224 30 94 12.0 14.0 0.03 0.00 0.00 94 1027.4
20170220100114 30 94 12.0 14.0 0.03 0.00 0.00 94 1027.4
20170220095614 30 91 11.0 13.0 0.03 0.00 0.00 94 1027.3
20170220095247 30 93 11.0 12.0 0.03 0.00 0.00 93 1027.1
20170220095114 30 93 11.0 12.0 0.03 0.00 0.00 93 1027.1
20170220094737 30 103 12.0 13.0 0.03 0.00 0.00 93 1026.9
20170220094614 30 103 12.0 13.0 0.03 0.00 0.00 93 1026.9
20170220094210 30 94 12.0 14.0 0.03 0.00 0.00 94 1026.7
20170220094114 30 94 12.0 14.0 0.03 0.00 0.00 94 1026.7
20170220093730 30 105 12.0 14.0 0.03 0.00 0.00 94 1026.4
20170220093614 30 105 12.0 14.0 0.03 0.00 0.00 94 1026.4
20170220093227 29 96 12.0 14.0 0.03 0.00 0.00 94 1026.0
20170220093114 29 96 12.0 14.0 0.03 0.00 0.00 94 1026.0
20170220092730 30 105 12.0 13.0 0.03 0.00 0.00 94 1025.8
20170220092614 30 105 12.0 13.0 0.03 0.00 0.00 94 1025.8
20170220092304 30 77 11.0 13.0 0.03 0.00 0.00 94 1025.7
20170220092114 30 77 11.0 13.0 0.03 0.00 0.00 94 1025.7
20170220091732 30 86 11.0 14.0 0.03 0.00 0.00 94 1025.6
20170220091614 30 86 11.0 14.0 0.03 0.00 0.00 94 1025.6
20170220091300 30 76 12.0 14.0 0.03 0.00 0.00 94 1025.5
20170220091114 30 76 12.0 14.0 0.03 0.00 0.00 94 1025.5
20170220090830 30 84 12.0 14.0 0.03 0.00 0.00 94 1025.3
20170220090724 30 84 12.0 14.0 0.03 0.00 0.00 94 1025.3
20170220090614 30 84 12.0 14.0 0.03 0.00 0.00 94 1025.3
20170220090223 30 72 12.0 15.0 0.03 0.00 0.00 94 1025.0
20170220090114 30 72 12.0 15.0 0.03 0.00 0.00 94 1025.0
20170220085733 30 69 13.0 15.0 0.03 0.00 0.00 94 1025.0
20170220085614 30 69 13.0 15.0 0.03 0.00 0.00 94 1025.0
20170220085219 30 75 13.0 15.0 0.03 0.00 0.00 94 1025.0
20170220085116 30 75 13.0 15.0 0.03 0.00 0.00 94 1025.0
20170220084727 30 83 12.0 15.0 0.03 0.00 0.00 94 1024.9
20170220084614 30 83 12.0 15.0 0.03 0.00 0.00 94 1024.9
20170220084159 30 84 12.0 14.0 0.03 0.00 0.00 94 1025.0
20170220084114 30 84 12.0 14.0 0.03 0.00 0.00 94 1025.0
20170220083734 30 87 12.0 14.0 0.03 0.00 0.00 94 1024.9
20170220083614 30 87 12.0 14.0 0.03 0.00 0.00 94 1024.9
20170220083114 29 83 11.0 14.0 0.03 0.00 0.00 94 1025.0
20170220082614 30 84 11.0 13.0 0.03 0.00 0.00 94 1025.0
20170220082203 30 93 12.0 15.0 0.03 0.00 0.00 94 1025.0
20170220082114 30 93 12.0 15.0 0.03 0.00 0.00 94 1025.0
20170220081728 30 80 11.0 13.0 0.03 0.00 0.00 94 1024.9
20170220081614 30 80 11.0 13.0 0.03 0.00 0.00 94 1024.9
20170220081206 30 82 11.0 15.0 0.03 0.00 0.00 94 1024.9
20170220081114 30 82 11.0 15.0 0.03 0.00 0.00 94 1024.9
20170220080726 30 76 12.0 15.0 0.03 0.00 0.00 94 1025.0
20170220080615 30 76 12.0 15.0 0.03 0.00 0.00 94 1025.0
20170220080209 30 73 13.0 15.0 0.03 0.00 0.00 94 1024.9
20170220080114 30 73 13.0 15.0 0.03 0.00 0.00 94 1024.9
20170220075707 30 69 12.0 16.0 0.03 0.00 0.00 94 1024.9
20170220075615 30 69 12.0 16.0 0.03 0.00 0.00 94 1024.9
20170220075225 30 65 13.0 16.0 0.03 0.00 0.00 94 1024.7
20170220075114 30 65 13.0 16.0 0.03 0.00 0.00 94 1024.7
20170220074614 30 66 13.0 15.0 0.03 0.00 0.00 93 1024.7
20170220074158 30 65 13.0 15.0 0.03 0.00 0.00 94 1024.7
20170220074116 30 65 13.0 15.0 0.03 0.00 0.00 94 1024.7
20170220073729 30 66 13.0 15.0 0.03 0.00 0.00 93 1024.7
20170220073614 30 66 13.0 15.0 0.03 0.00 0.00 93 1024.7
20170220073212 31 55 12.0 14.0 0.03 0.00 0.00 93 1024.9
20170220073114 31 55 12.0 14.0 0.03 0.00 0.00 93 1024.9
20170220072724 31 51 12.0 14.0 0.03 0.00 0.00 93 1024.8
20170220072616 31 51 12.0 14.0 0.03 0.00 0.00 93 1024.8
20170220072307 31 59 12.0 15.0 0.03 0.00 0.00 93 1024.7
20170220072115 31 59 12.0 15.0 0.03 0.00 0.00 93 1024.7
20170220071614 31 59 12.0 14.0 0.03 0.00 0.00 93 1024.6
20170220071210 31 49 12.0 13.0 0.03 0.00 0.00 93 1024.8
20170220071115 31 49 12.0 13.0 0.03 0.00 0.00 93 1024.8
20170220070738 31 52 12.0 13.0 0.03 0.00 0.00 93 1024.7
20170220070614 31 52 12.0 13.0 0.03 0.00 0.00 93 1024.7
20170220070114 31 48 12.0 13.0 0.03 0.00 0.00 94 1024.8
20170220065724 31 45 11.0 12.0 0.03 0.00 0.00 94 1024.8
20170220065614 31 45 11.0 12.0 0.03 0.00 0.00 94 1024.8
20170220065232 31 38 10.0 11.0 0.03 0.00 0.00 94 1024.9
20170220065114 31 38 10.0 11.0 0.03 0.00 0.00 94 1024.9
20170220064614 31 32 11.0 11.0 0.03 0.00 0.00 94 1024.7
20170220064115 31 35 11.0 11.0 0.03 0.00 0.00 94 1024.7
20170220063615 30 21 10.0 12.0 0.03 0.00 0.00 94 1024.6
20170220063115 31 35 10.0 12.0 0.03 0.00 0.00 94 1024.6
20170220062651 30 24 10.0 10.0 0.03 0.00 0.00 94 1024.4
20170220062615 30 24 10.0 10.0 0.03 0.00 0.00 94 1024.4
20170220062114 30 17 9.0 10.0 0.03 0.00 0.00 94 1024.3
20170220061740 30 17 8.0 9.0 0.03 0.00 0.00 94 1024.4
20170220061614 30 17 8.0 9.0 0.03 0.00 0.00 94 1024.4
20170220061114 31 23 8.0 9.0 0.03 0.00 0.00 93 1024.5
20170220060719 31 30 9.0 10.0 0.03 0.00 0.00 93 1024.3
20170220060614 31 30 9.0 10.0 0.03 0.00 0.00 93 1024.3
20170220060225 31 41 9.0 11.0 0.03 0.00 0.00 93 1024.3
20170220060147 31 41 9.0 11.0 0.03 0.00 0.00 93 1024.3
20170220060115 31 41 9.0 11.0 0.03 0.00 0.00 93 1024.3
20170220055700 32 37 10.0 11.0 0.03 0.00 0.00 93 1024.4
20170220055614 32 37 10.0 11.0 0.03 0.00 0.00 93 1024.4
20170220055312 32 58 12.0 14.0 0.03 0.00 0.00 93 1024.2
20170220055114 32 58 12.0 14.0 0.03 0.00 0.00 93 1024.2
20170220054747 31 39 13.0 15.0 0.03 0.00 0.00 93 1024.3
20170220054614 31 39 13.0 15.0 0.03 0.00 0.00 93 1024.3
20170220054203 31 37 12.0 15.0 0.03 0.00 0.00 94 1024.3
20170220054114 31 37 12.0 15.0 0.03 0.00 0.00 94 1024.3
20170220053614 31 37 12.0 13.0 0.03 0.00 0.00 94 1024.3
20170220053306 31 28 12.0 13.0 0.03 0.00 0.00 94 1024.4
20170220053114 31 28 12.0 13.0 0.03 0.00 0.00 94 1024.4
20170220052615 31 31 11.0 12.0 0.03 0.00 0.00 94 1024.4
20170220052239 31 24 11.0 12.0 0.03 0.00 0.00 94 1024.4
20170220052114 31 24 11.0 12.0 0.03 0.00 0.00 94 1024.4
20170220051716 31 24 10.0 11.0 0.03 0.00 0.00 93 1024.2
20170220051614 31 24 10.0 11.0 0.03 0.00 0.00 93 1024.2
20170220051152 31 25 11.0 12.0 0.03 0.00 0.00 94 1024.0
20170220051115 31 25 11.0 12.0 0.03 0.00 0.00 94 1024.0
20170220050721 31 24 11.0 13.0 0.03 0.00 0.00 94 1023.9
20170220050615 31 24 11.0 13.0 0.03 0.00 0.00 94 1023.9
20170220050204 31 21 10.0 11.0 0.03 0.00 0.00 94 1023.8
20170220050115 31 21 10.0 11.0 0.03 0.00 0.00 94 1023.8
20170220045614 31 20 10.0 11.0 0.03 0.00 0.00 93 1023.7
20170220045211 31 17 10.0 11.0 0.03 0.00 0.00 93 1023.9
20170220045116 31 17 10.0 11.0 0.03 0.00 0.00 93 1023.9
20170220044736 31 21 11.0 11.0 0.03 0.00 0.00 93 1023.9
20170220044615 31 21 11.0 11.0 0.03 0.00 0.00 93 1023.9
20170220044218 31 30 11.0 12.0 0.03 0.00 0.00 93 1023.9
20170220044116 31 30 11.0 12.0 0.03 0.00 0.00 93 1023.9
20170220043713 31 15 12.0 13.0 0.03 0.00 0.00 93 1023.9
20170220043615 31 15 12.0 13.0 0.03 0.00 0.00 93 1023.9
20170220043313 31 27 11.0 12.0 0.03 0.00 0.00 93 1023.9
20170220043115 31 27 11.0 12.0 0.03 0.00 0.00 93 1023.9
20170220042717 31 21 11.0 12.0 0.03 0.00 0.00 93 1023.8
20170220042616 31 21 11.0 12.0 0.03 0.00 0.00 93 1023.8
20170220042306 31 15 10.0 11.0 0.03 0.00 0.00 93 1024.1
20170220042115 31 15 10.0 11.0 0.03 0.00 0.00 93 1024.1
20170220041720 31 1 10.0 11.0 0.03 0.00 0.00 93 1024.0
20170220041614 31 1 10.0 11.0 0.03 0.00 0.00 93 1024.0
20170220041210 31 11 10.0 12.0 0.03 0.00 0.00 93 1024.0
20170220041114 31 11 10.0 12.0 0.03 0.00 0.00 93 1024.0
20170220040718 31 14 11.0 13.0 0.03 0.00 0.00 93 1023.7
20170220040615 31 14 11.0 13.0 0.03 0.00 0.00 93 1023.7
20170220040251 31 14 11.0 13.0 0.03 0.00 0.00 93 1023.5
20170220040114 31 14 11.0 13.0 0.03 0.00 0.00 93 1023.5
20170220035716 31 18 11.0 13.0 0.03 0.00 0.00 92 1023.5
20170220035614 31 18 11.0 13.0 0.03 0.00 0.00 92 1023.5
20170220035315 31 23 12.0 13.0 0.03 0.00 0.00 92 1023.5
20170220035116 31 23 12.0 13.0 0.03 0.00 0.00 92 1023.5
20170220034614 31 18 11.0 13.0 0.03 0.00 0.00 92 1023.4
20170220034231 32 0 11.0 12.0 0.03 0.00 0.00 92 1023.3
20170220034115 32 0 11.0 12.0 0.03 0.00 0.00 92 1023.3
20170220033716 31 21 10.0 13.0 0.03 0.00 0.00 92 1023.4
20170220033614 31 21 10.0 13.0 0.03 0.00 0.00 92 1023.4
20170220033249 32 4 12.0 13.0 0.03 0.00 0.00 92 1023.6
20170220033115 32 4 12.0 13.0 0.03 0.00 0.00 92 1023.6
20170220032713 32 353 11.0 13.0 0.03 0.00 0.00 92 1023.7
20170220032615 32 353 11.0 13.0 0.03 0.00 0.00 92 1023.7
20170220032236 32 353 11.0 13.0 0.03 0.00 0.00 92 1023.9
20170220032115 32 353 11.0 13.0 0.03 0.00 0.00 92 1023.9
20170220031658 32 357 10.0 12.0 0.03 0.00 0.00 92 1023.9
20170220031615 32 357 10.0 12.0 0.03 0.00 0.00 92 1023.9
20170220031115 32 8 10.0 12.0 0.03 0.00 0.00 91 1023.7
20170220030615 32 4 10.0 12.0 0.03 0.00 0.00 91 1023.6
20170220030310 32 6 10.0 12.0 0.03 0.00 0.00 91 1023.6
20170220030115 32 6 10.0 12.0 0.03 0.00 0.00 91 1023.6
20170220025707 32 357 11.0 13.0 0.03 0.00 0.00 91 1023.2
20170220025615 32 357 11.0 13.0 0.03 0.00 0.00 91 1023.2
20170220025312 33 4 11.0 13.0 0.03 0.00 0.00 91 1023.2
20170220025115 33 4 11.0 13.0 0.03 0.00 0.00 91 1023.2
20170220024615 32 354 11.0 12.0 0.03 0.00 0.00 91 1023.0
20170220024256 32 350 9.0 12.0 0.03 0.00 0.00 91 1023.0
20170220024115 32 350 9.0 12.0 0.03 0.00 0.00 91 1023.0
20170220023728 33 350 11.0 13.0 0.03 0.00 0.00 91 1022.9
20170220023618 33 350 11.0 13.0 0.03 0.00 0.00 91 1022.9
20170220023236 33 1 11.0 12.0 0.03 0.00 0.00 91 1022.9
20170220023115 33 1 11.0 12.0 0.03 0.00 0.00 91 1022.9
20170220022615 33 352 10.0 12.0 0.03 0.00 0.00 91 1022.8
20170220022212 33 353 10.0 11.0 0.03 0.00 0.00 91 1022.9
20170220022115 33 353 10.0 11.0 0.03 0.00 0.00 91 1022.9
20170220021616 33 354 10.0 11.0 0.03 0.00 0.00 91 1022.9
20170220021258 33 353 9.0 11.0 0.03 0.00 0.00 91 1023.3
20170220021115 33 353 9.0 11.0 0.03 0.00 0.00 91 1023.3
20170220020711 33 352 9.0 11.0 0.03 0.00 0.00 91 1023.4
20170220020615 33 352 9.0 11.0 0.03 0.00 0.00 91 1023.4
20170220020320 33 356 9.0 11.0 0.03 0.00 0.00 91 1023.2
20170220020117 33 356 9.0 11.0 0.03 0.00 0.00 91 1023.2
20170220015711 33 352 9.0 11.0 0.03 0.00 0.00 91 1023.0
20170220015617 33 352 9.0 11.0 0.03 0.00 0.00 91 1023.0
20170220015313 33 356 9.0 11.0 0.03 0.00 0.00 91 1023.0
20170220015115 33 356 9.0 11.0 0.03 0.00 0.00 91 1023.0
20170220014615 33 354 10.0 11.0 0.03 0.00 0.00 91 1022.8
20170220014323 33 357 10.0 12.0 0.03 0.00 0.00 91 1022.8
20170220014115 33 357 10.0 12.0 0.03 0.00 0.00 91 1022.8
20170220013722 33 353 10.0 12.0 0.03 0.00 0.00 91 1022.5
20170220013615 33 353 10.0 12.0 0.03 0.00 0.00 91 1022.5
20170220013225 34 6 12.0 14.0 0.03 0.00 0.00 91 1022.2
20170220013115 34 6 12.0 14.0 0.03 0.00 0.00 91 1022.2
20170220012617 33 352 11.0 13.0 0.03 0.00 0.00 91 1022.2
20170220012244 34 357 11.0 13.0 0.03 0.00 0.00 91 1022.1
20170220012115 34 357 11.0 13.0 0.03 0.00 0.00 91 1022.1
20170220011615 33 1 12.0 14.0 0.03 0.00 0.00 90 1022.1
20170220011205 33 357 11.0 13.0 0.03 0.00 0.00 91 1022.2
20170220011115 33 357 11.0 13.0 0.03 0.00 0.00 91 1022.2
20170220010709 33 357 11.0 13.0 0.03 0.00 0.00 91 1022.2
20170220010615 33 357 11.0 13.0 0.03 0.00 0.00 91 1022.2
20170220010218 33 347 11.0 13.0 0.03 0.00 0.00 91 1022.1
20170220010115 33 347 11.0 13.0 0.03 0.00 0.00 91 1022.1
20170220005703 34 349 11.0 14.0 0.03 0.00 0.00 91 1022.2
20170220005615 34 349 11.0 14.0 0.03 0.00 0.00 91 1022.2
20170220005115 34 350 12.0 16.0 0.03 0.00 0.00 91 1022.1
20170220004718 34 352 11.0 14.0 0.03 0.00 0.00 91 1022.0
20170220004615 34 352 11.0 14.0 0.03 0.00 0.00 91 1022.0
20170220004222 34 347 12.0 15.0 0.03 0.00 0.00 91 1022.0
20170220004115 34 347 12.0 15.0 0.03 0.00 0.00 91 1022.0
20170220003729 34 342 11.0 14.0 0.03 0.00 0.00 91 1021.8
20170220003616 34 342 11.0 14.0 0.03 0.00 0.00 91 1021.8
20170220003232 34 345 13.0 16.0 0.03 0.00 0.00 91 1021.6
20170220003116 34 345 13.0 16.0 0.03 0.00 0.00 91 1021.6
20170220002704 34 1 13.0 16.0 0.03 0.00 0.00 91 1021.6
20170220002615 34 1 13.0 16.0 0.03 0.00 0.00 91 1021.6
20170220002214 34 347 12.0 17.0 0.03 0.00 0.00 91 1021.5
20170220002115 34 347 12.0 17.0 0.03 0.00 0.00 91 1021.5
20170220001615 34 354 10.0 13.0 0.03 0.00 0.00 91 1021.5
20170220001247 34 353 10.0 13.0 0.03 0.00 0.00 91 1021.5
20170220001115 34 353 10.0 13.0 0.03 0.00 0.00 91 1021.5
20170220000719 34 353 12.0 15.0 0.03 0.00 0.00 91 1021.4
20170220000615 34 353 12.0 15.0 0.03 0.00 0.00 91 1021.4
20170220000230 34 347 11.0 14.0 0.03 0.00 0.00 91 1021.4
20170220000115 34 347 11.0 14.0 0.03 0.00 0.00 91 1021.4
20170219235703 34 353 10.0 12.0 0.03 0.00 0.00 91 1021.7
20170219235616 34 353 10.0 12.0 0.03 0.00 0.00 91 1021.7
20170219235306 35 336 10.0 12.0 0.03 0.00 0.00 91 1021.9
20170219235115 35 336 10.0 12.0 0.03 0.00 0.00 91 1021.9
20170219234723 35 338 9.0 12.0 0.03 0.00 0.00 91 1021.8
20170219234615 35 338 9.0 12.0 0.03 0.00 0.00 91 1021.8
20170219234258 35 336 10.0 13.0 0.03 0.00 0.00 91 1021.8
20170219234115 35 336 10.0 13.0 0.03 0.00 0.00 91 1021.8
20170219233707 35 330 9.0 12.0 0.03 0.00 0.00 91 1021.7
20170219233615 35 330 9.0 12.0 0.03 0.00 0.00 91 1021.7
20170219233115 35 323 10.0 11.0 0.03 0.00 0.00 91 1021.5
20170219232615 36 325 10.0 12.0 0.03 0.00 0.00 90 1021.2
20170219232115 36 332 10.0 13.0 0.03 0.00 0.00 90 1021.2
20170219231616 36 335 9.0 11.0 0.03 0.00 0.00 90 1020.9
20170219231251 36 325 10.0 13.0 0.03 0.00 0.00 90 1020.7
20170219231115 36 325 10.0 13.0 0.03 0.00 0.00 90 1020.7
20170219230658 36 333 10.0 13.0 0.03 0.00 0.00 90 1020.6
20170219230615 36 333 10.0 13.0 0.03 0.00 0.00 90 1020.6
20170219230252 36 354 10.0 14.0 0.03 0.00 0.00 89 1020.5
20170219230115 36 354 10.0 14.0 0.03 0.00 0.00 89 1020.5
20170219225655 36 1 11.0 14.0 0.03 0.00 0.00 89 1020.5
20170219225615 36 1 11.0 14.0 0.03 0.00 0.00 89 1020.5
20170219225115 37 349 12.0 16.0 0.03 0.00 0.00 88 1020.6
20170219224712 37 347 13.0 16.0 0.03 0.00 0.00 88 1020.6
20170219224615 37 347 13.0 16.0 0.03 0.00 0.00 88 1020.6
20170219224213 37 336 13.0 16.0 0.03 0.00 0.00 87 1020.6
20170219224115 37 336 13.0 16.0 0.03 0.00 0.00 87 1020.6
20170219223615 38 346 13.0 17.0 0.03 0.00 0.00 87 1020.7
20170219223316 38 345 14.0 19.0 0.03 0.00 0.00 86 1020.6
20170219223115 38 345 14.0 19.0 0.03 0.00 0.00 86 1020.6
20170219222616 38 349 12.0 17.0 0.03 0.00 0.00 86 1020.5
20170219222227 38 349 12.0 17.0 0.03 0.00 0.00 86 1020.3
20170219222115 38 349 12.0 17.0 0.03 0.00 0.00 86 1020.3
20170219221616 38 336 13.0 19.0 0.03 0.00 0.00 86 1020.0
20170219221212 38 346 15.0 19.0 0.03 0.00 0.00 86 1019.6
20170219221117 38 346 15.0 19.0 0.03 0.00 0.00 86 1019.6
20170219220721 38 342 16.0 21.0 0.03 0.00 0.00 85 1019.4
20170219220615 38 342 16.0 21.0 0.03 0.00 0.00 85 1019.4
20170219220252 38 328 17.0 23.0 0.03 0.00 0.00 85 1019.2
20170219220115 38 328 17.0 23.0 0.03 0.00 0.00 85 1019.2
20170219215616 38 332 14.0 19.0 0.03 0.00 0.00 86 1019.1
20170219215115 38 330 15.0 20.0 0.03 0.00 0.00 84 1019.0
20170219214703 39 332 19.0 25.0 0.03 0.00 0.00 83 1018.8
20170219214616 39 332 19.0 25.0 0.03 0.00 0.00 83 1018.8
20170219214248 39 338 19.0 26.0 0.03 0.00 0.00 82 1018.8
20170219214115 39 338 19.0 26.0 0.03 0.00 0.00 82 1018.8
20170219213654 40 340 18.0 23.0 0.03 0.00 0.00 84 1018.8
20170219213615 40 340 18.0 23.0 0.03 0.00 0.00 84 1018.8
20170219213253 40 328 14.0 18.0 0.03 0.00 0.00 84 1019.1
20170219213115 40 328 14.0 18.0 0.03 0.00 0.00 84 1019.1
20170219212656 40 352 16.0 22.0 0.03 0.00 0.00 83 1019.0
20170219212615 40 352 16.0 22.0 0.03 0.00 0.00 83 1019.0
20170219212250 40 314 14.0 20.0 0.03 0.00 0.00 84 1019.1
20170219212116 40 314 14.0 20.0 0.03 0.00 0.00 84 1019.1
20170219211705 40 314 14.0 19.0 0.03 0.00 0.00 84 1019.1
20170219211616 40 314 14.0 19.0 0.03 0.00 0.00 84 1019.1
20170219211212 40 325 14.0 20.0 0.03 0.00 0.00 84 1019.0
20170219211117 40 325 14.0 20.0 0.03 0.00 0.00 84 1019.0
20170219210654 40 315 16.0 20.0 0.03 0.00 0.00 84 1018.8
20170219210616 40 315 16.0 20.0 0.03 0.00 0.00 84 1018.8
20170219210239 40 314 15.0 20.0 0.03 0.00 0.00 83 1018.6
20170219210115 40 314 15.0 20.0 0.03 0.00 0.00 83 1018.6
20170219205615 40 319 16.0 20.0 0.03 0.00 0.00 84 1018.5
20170219205311 40 311 16.0 19.0 0.03 0.00 0.00 84 1018.4
20170219205116 40 311 16.0 19.0 0.03 0.00 0.00 84 1018.4
20170219204702 40 314 16.0 20.0 0.03 0.00 0.00 83 1018.4
20170219204615 40 314 16.0 20.0 0.03 0.00 0.00 83 1018.4
20170219204117 40 309 16.0 19.0 0.03 0.00 0.00 82 1018.2
20170219203619 40 314 19.0 24.0 0.03 0.00 0.00 82 1018.2
20170219203212 40 294 18.0 22.0 0.03 0.00 0.00 81 1018.1
20170219203116 40 294 18.0 22.0 0.03 0.00 0.00 81 1018.1
20170219202616 41 321 16.0 20.0 0.03 0.00 0.00 83 1018.1
20170219202117 41 319 16.0 20.0 0.03 0.00 0.00 83 1018.1
20170219200704 41 314 15.0 20.0 0.03 0.00 0.00 83 1018.1
20170219200615 41 314 15.0 20.0 0.03 0.00 0.00 83 1018.1
20170219200230 41 328 17.0 20.0 0.03 0.00 0.00 81 1018.1
20170219200115 41 328 17.0 20.0 0.03 0.00 0.00 81 1018.1
20170219195615 41 316 16.0 20.0 0.03 0.00 0.00 82 1018.1
20170219195225 41 326 15.0 19.0 0.03 0.00 0.00 82 1017.9
20170219195116 41 326 15.0 19.0 0.03 0.00 0.00 82 1017.9
20170219194616 40 314 18.0 22.0 0.03 0.00 0.00 82 1017.5
20170219194116 41 323 16.0 22.0 0.03 0.00 0.00 81 1017.5
20170219193616 41 321 18.0 23.0 0.03 0.00 0.00 81 1017.2
20170219193216 41 312 16.0 21.0 0.03 0.00 0.00 81 1017.2
20170219193117 41 312 16.0 21.0 0.03 0.00 0.00 81 1017.2
20170219192617 40 316 19.0 21.0 0.03 0.00 0.00 81 1016.8
20170219192216 40 314 18.0 23.0 0.03 0.00 0.00 80 1016.6
20170219192116 40 314 18.0 23.0 0.03 0.00 0.00 80 1016.6
20170219191700 41 319 17.0 22.0 0.03 0.00 0.00 80 1016.7
20170219191616 41 319 17.0 22.0 0.03 0.00 0.00 80 1016.7
20170219191212 41 314 15.0 19.0 0.03 0.00 0.00 80 1016.8
20170219191116 41 314 15.0 19.0 0.03 0.00 0.00 80 1016.8
20170219190616 41 325 16.0 20.0 0.03 0.00 0.00 81 1016.8
20170219190116 41 319 16.0 20.0 0.03 0.00 0.00 81 1016.9
20170219185616 41 322 15.0 18.0 0.03 0.00 0.00 81 1017.1
20170219185116 41 328 13.0 17.0 0.03 0.00 0.00 83 1016.8
20170219184616 41 349 13.0 15.0 0.03 0.00 0.00 82 1016.7
20170219184116 41 323 12.0 15.0 0.03 0.00 0.00 83 1016.6
20170219183616 41 329 12.0 15.0 0.03 0.00 0.00 83 1016.3
20170219183116 41 329 12.0 15.0 0.03 0.00 0.00 83 1016.3
20170219182651 41 323 13.0 16.0 0.03 0.00 0.00 83 1016.2
20170219182616 41 323 13.0 16.0 0.03 0.00 0.00 83 1016.2
20170219182217 41 328 12.0 15.0 0.03 0.00 0.00 83 1016.2
20170219182116 41 328 12.0 15.0 0.03 0.00 0.00 83 1016.2
20170219181616 41 325 14.0 17.0 0.03 0.00 0.00 83 1016.1
20170219181116 40 314 14.0 17.0 0.03 0.00 0.00 82 1016.3
20170219180658 40 326 17.0 21.0 0.03 0.00 0.00 82 1016.4
20170219180616 40 326 17.0 21.0 0.03 0.00 0.00 82 1016.4
20170219180320 40 342 16.0 19.0 0.03 0.00 0.00 82 1016.4
20170219180116 40 342 16.0 19.0 0.03 0.00 0.00 82 1016.4
20170219175652 40 307 15.0 20.0 0.03 0.00 0.00 82 1016.4
20170219175616 40 307 15.0 20.0 0.03 0.00 0.00 82 1016.4
20170219175212 40 329 17.0 21.0 0.03 0.00 0.00 82 1016.3
20170219175117 40 329 17.0 21.0 0.03 0.00 0.00 82 1016.3
20170219174619 40 316 17.0 21.0 0.03 0.00 0.00 80 1016.3